Time;durP1;ratioP1;P1;durP2;ratioP2;P2;SDS_P1;SDS_P2;PMS_P1;PMS_P2;Temp;Humidity;BMP_temperature;BMP_pressure;BME280_temperature;BME280_humidity;BME280_pressure;Samples;Min_cycle;Max_cycle;Signal;HPM_P1;HPM_P2
2020/12/08 00:00:20;;;;;;;24.65;14.70;;;1.70;99.90;;;;;;4926114;29;20052;-91
2020/12/08 00:02:50;;;;;;;29.02;15.20;;;1.70;99.90;;;;;;4893704;29;20041;-91
2020/12/08 00:05:17;;;;;;;25.05;13.68;;;1.90;99.90;;;;;;4916557;29;20033;-90
2020/12/08 00:07:45;;;;;;;23.67;13.93;;;2.00;99.90;;;;;;4922648;29;20032;-90
2020/12/08 00:10:18;;;;;;;26.35;14.40;;;2.00;99.90;;;;;;4915973;29;20045;-91
2020/12/08 00:12:47;;;;;;;21.70;12.77;;;2.10;99.90;;;;;;4900526;29;20044;-90
2020/12/08 00:15:16;;;;;;;21.17;11.77;;;2.00;99.90;;;;;;4891871;29;20045;-91
2020/12/08 00:18:16;;;;;;;24.02;13.88;;;2.10;99.90;;;;;;4873259;29;20034;-90
2020/12/08 00:20:45;;;;;;;23.23;14.02;;;2.00;99.90;;;;;;4897748;29;20328;-92
2020/12/08 00:23:12;;;;;;;25.70;14.75;;;1.90;99.90;;;;;;4853771;29;20034;-92
2020/12/08 00:25:38;;;;;;;28.13;15.07;;;1.70;99.90;;;;;;4853092;29;20034;-92
2020/12/08 00:28:04;;;;;;;25.50;14.60;;;1.60;99.90;;;;;;4837302;29;20142;-93
2020/12/08 00:30:30;;;;;;;24.08;13.95;;;1.60;99.90;;;;;;4857711;29;20096;-91
2020/12/08 00:32:56;;;;;;;25.33;14.65;;;1.60;99.90;;;;;;4892026;29;20032;-92
2020/12/08 00:35:24;;;;;;;25.52;14.70;;;1.60;99.90;;;;;;4927860;29;20499;-91
2020/12/08 00:37:59;;;;;;;23.90;14.52;;;1.60;99.90;;;;;;4911121;29;20060;-91
2020/12/08 00:40:27;;;;;;;24.42;14.70;;;1.70;99.90;;;;;;4907507;29;20063;-91
2020/12/08 00:42:59;;;;;;;24.95;14.63;;;1.70;99.90;;;;;;4923297;29;20032;-91
2020/12/08 00:45:24;;;;;;;26.60;15.27;;;1.70;99.90;;;;;;4909276;29;20063;-92
2020/12/08 00:47:55;;;;;;;27.23;14.80;;;1.80;99.90;;;;;;4909641;29;20037;-92
2020/12/08 00:50:21;;;;;;;29.38;16.33;;;1.80;99.90;;;;;;4865724;29;20453;-92
2020/12/08 00:52:46;;;;;;;22.70;13.30;;;2.00;99.90;;;;;;4910666;29;20071;-92
2020/12/08 00:55:12;;;;;;;23.67;14.77;;;2.10;99.90;;;;;;4917724;28;20091;-92
2020/12/08 00:57:38;;;;;;;23.65;14.95;;;2.10;99.90;;;;;;4899249;29;20017;-91
2020/12/08 01:00:06;;;;;;;24.50;13.82;;;2.20;99.90;;;;;;4939527;28;20064;-91
2020/12/08 01:02:34;;;;;;;23.02;13.52;;;2.30;99.90;;;;;;4980747;28;20011;-91
2020/12/08 01:05:00;;;;;;;22.42;12.52;;;2.30;99.90;;;;;;4945807;28;20055;-90
2020/12/08 01:07:26;;;;;;;22.23;13.13;;;2.40;99.90;;;;;;4937711;29;20047;-91
2020/12/08 01:09:52;;;;;;;23.83;13.52;;;2.40;99.90;;;;;;4936519;29;20047;-91
2020/12/08 01:12:17;;;;;;;23.92;12.90;;;2.30;99.90;;;;;;4945340;29;20039;-91
2020/12/08 01:14:43;;;;;;;28.17;15.50;;;2.20;99.90;;;;;;4954052;29;20107;-92
2020/12/08 01:17:09;;;;;;;28.02;15.45;;;2.10;99.90;;;;;;4935519;29;20159;-89
2020/12/08 01:19:36;;;;;;;24.20;13.32;;;1.90;99.90;;;;;;4956217;29;20023;-89
2020/12/08 01:22:03;;;;;;;25.48;14.43;;;1.80;99.90;;;;;;4961995;29;20039;-90
2020/12/08 01:24:28;;;;;;;23.15;14.27;;;1.80;99.90;;;;;;4916785;29;20044;-90
2020/12/08 01:26:58;;;;;;;23.73;14.50;;;1.60;99.90;;;;;;4935594;29;20051;-88
2020/12/08 01:29:24;;;;;;;27.17;15.40;;;1.50;99.90;;;;;;4925249;29;20158;-89
2020/12/08 01:31:50;;;;;;;33.58;15.98;;;1.30;99.90;;;;;;4916453;29;20124;-91
2020/12/08 01:34:18;;;;;;;30.48;15.60;;;1.30;99.90;;;;;;4906809;29;20039;-89
2020/12/08 01:36:45;;;;;;;31.85;16.65;;;1.40;99.90;;;;;;4909166;29;20052;-89
2020/12/08 01:39:12;;;;;;;26.77;16.25;;;1.50;99.90;;;;;;4920203;29;20088;-88
2020/12/08 01:41:38;;;;;;;31.65;17.63;;;1.70;99.90;;;;;;4900104;29;20040;-90
2020/12/08 01:44:08;;;;;;;26.77;14.68;;;1.90;99.90;;;;;;4911743;29;20060;-91
2020/12/08 01:46:37;;;;;;;29.40;17.10;;;2.00;99.90;;;;;;4910323;29;20147;-91
2020/12/08 01:49:03;;;;;;;33.30;17.10;;;2.10;99.90;;;;;;4892696;29;20109;-91
2020/12/08 01:51:29;;;;;;;29.55;17.27;;;2.10;99.90;;;;;;4895727;29;20025;-93
2020/12/08 01:53:57;;;;;;;30.70;17.27;;;2.10;99.90;;;;;;4897961;29;20069;-91
2020/12/08 01:56:23;;;;;;;32.50;18.05;;;2.20;99.90;;;;;;4926991;29;20215;-92
2020/12/08 01:58:49;;;;;;;30.63;16.88;;;2.30;99.90;;;;;;4920150;29;20107;-90
2020/12/08 02:01:18;;;;;;;26.05;17.70;;;2.40;99.90;;;;;;4931819;29;20020;-90
2020/12/08 02:03:49;;;;;;;34.58;18.33;;;2.40;99.90;;;;;;4920889;29;20068;-91
2020/12/08 02:06:15;;;;;;;35.70;18.63;;;2.50;99.90;;;;;;4909479;29;20042;-90
2020/12/08 02:08:42;;;;;;;27.95;16.20;;;2.60;99.90;;;;;;4906393;29;20036;-88
2020/12/08 02:11:10;;;;;;;27.80;17.00;;;2.70;99.90;;;;;;4916525;29;20517;-89
2020/12/08 02:13:39;;;;;;;32.13;20.13;;;2.80;99.90;;;;;;4939181;29;20039;-91
2020/12/08 02:16:05;;;;;;;27.80;17.25;;;3.00;99.90;;;;;;4936225;28;20048;-89
2020/12/08 02:18:31;;;;;;;29.67;17.52;;;3.10;99.90;;;;;;4945475;29;20494;-90
2020/12/08 02:21:00;;;;;;;30.55;16.75;;;3.10;99.90;;;;;;4916814;29;20030;-90
2020/12/08 02:23:26;;;;;;;27.40;16.25;;;3.10;99.90;;;;;;4916296;29;20038;-88
2020/12/08 02:26:03;;;;;;;28.35;17.15;;;3.10;99.90;;;;;;4892621;29;20482;-89
2020/12/08 02:28:34;;;;;;;27.55;15.68;;;3.20;99.90;;;;;;4919743;29;20044;-88
2020/12/08 02:31:01;;;;;;;28.17;16.83;;;3.30;99.90;;;;;;4926483;29;20034;-89
2020/12/08 02:33:31;;;;;;;30.52;17.55;;;3.30;99.90;;;;;;4933997;29;20115;-90
2020/12/08 02:35:57;;;;;;;28.55;17.90;;;3.40;99.90;;;;;;4907526;29;20036;-90
2020/12/08 02:38:26;;;;;;;28.63;17.73;;;3.40;99.90;;;;;;4941854;28;20024;-89
2020/12/08 02:40:54;;;;;;;27.13;16.35;;;3.50;99.90;;;;;;4941442;28;20024;-89
2020/12/08 02:43:20;;;;;;;30.90;19.05;;;3.50;99.90;;;;;;4898551;29;20063;-89
2020/12/08 02:45:46;;;;;;;29.17;17.02;;;3.50;99.90;;;;;;4932090;29;20256;-88
2020/12/08 02:48:12;;;;;;;29.33;18.33;;;3.50;99.90;;;;;;4933894;29;20072;-88
2020/12/08 02:50:38;;;;;;;31.55;17.25;;;3.50;99.90;;;;;;4922918;29;20112;-88
2020/12/08 02:53:04;;;;;;;29.02;17.85;;;3.50;99.90;;;;;;4912106;29;20469;-90
2020/12/08 02:55:30;;;;;;;26.73;17.02;;;3.50;99.90;;;;;;4925461;29;20079;-91
2020/12/08 02:57:59;;;;;;;29.27;17.40;;;3.60;99.90;;;;;;4919907;28;20036;-89
2020/12/08 03:00:26;;;;;;;29.88;18.38;;;3.60;99.90;;;;;;4942241;28;20111;-89
2020/12/08 03:02:51;;;;;;;31.95;18.77;;;3.70;99.90;;;;;;4961327;28;20074;-91
2020/12/08 03:05:19;;;;;;;32.00;19.55;;;3.70;99.90;;;;;;4937171;28;20036;-89
2020/12/08 03:07:45;;;;;;;34.15;18.70;;;3.70;99.90;;;;;;4959994;29;20027;-89
2020/12/08 03:10:14;;;;;;;30.65;18.25;;;3.70;99.90;;;;;;4946769;28;20148;-88
2020/12/08 03:12:41;;;;;;;30.52;18.05;;;3.70;99.90;;;;;;4945689;29;20028;-93
2020/12/08 03:15:07;;;;;;;30.60;19.58;;;3.70;99.90;;;;;;4963810;28;20023;-92
2020/12/08 03:17:34;;;;;;;32.72;18.38;;;3.70;99.90;;;;;;4951875;29;20041;-92
2020/12/08 03:20:03;;;;;;;29.25;17.65;;;3.70;99.90;;;;;;4935108;28;20119;-92
2020/12/08 03:22:32;;;;;;;32.15;18.52;;;3.80;99.90;;;;;;4941465;29;20098;-92
2020/12/08 03:25:00;;;;;;;34.28;18.65;;;3.80;99.90;;;;;;4948304;28;20140;-92
2020/12/08 03:27:27;;;;;;;30.98;18.52;;;3.70;99.90;;;;;;4945743;28;20031;-92
2020/12/08 03:29:54;;;;;;;33.03;19.67;;;3.70;99.90;;;;;;4956128;28;20027;-93
2020/12/08 03:32:27;;;;;;;32.45;18.45;;;3.70;99.90;;;;;;4950377;29;20051;-93
2020/12/08 03:34:59;;;;;;;29.67;17.92;;;3.80;99.90;;;;;;4855386;29;20066;-93
2020/12/08 03:37:29;;;;;;;29.15;18.27;;;3.80;99.90;;;;;;4900957;29;20041;-95
2020/12/08 03:39:56;;;;;;;33.58;18.25;;;3.80;99.90;;;;;;4885145;29;20127;-95
2020/12/08 03:42:29;;;;;;;30.17;18.42;;;3.80;99.90;;;;;;4863858;29;20170;-95
2020/12/08 03:44:56;;;;;;;31.90;19.48;;;3.80;99.90;;;;;;4863966;29;20125;-93
2020/12/08 03:47:23;;;;;;;30.55;17.90;;;3.80;99.90;;;;;;4849451;29;20049;-92
2020/12/08 03:50:28;;;;;;;30.17;18.65;;;3.90;99.90;;;;;;4867321;29;20049;-92
2020/12/08 03:52:57;;;;;;;32.05;19.35;;;3.90;99.90;;;;;;4888708;29;20060;-92
2020/12/08 03:55:23;;;;;;;33.38;19.25;;;3.80;99.90;;;;;;4884927;29;20025;-91
2020/12/08 03:57:49;;;;;;;32.33;19.92;;;3.80;99.90;;;;;;4869449;29;20116;-91
2020/12/08 04:00:20;;;;;;;29.80;18.67;;;3.70;99.90;;;;;;4879816;29;20037;-92
2020/12/08 04:02:46;;;;;;;30.40;18.90;;;3.60;99.90;;;;;;4873373;29;20037;-92
2020/12/08 04:05:13;;;;;;;33.40;21.38;;;3.50;99.90;;;;;;4888292;29;20048;-92
2020/12/08 04:07:38;;;;;;;33.05;19.35;;;3.40;99.90;;;;;;4873602;29;20045;-91
2020/12/08 04:10:05;;;;;;;32.63;19.33;;;3.40;99.90;;;;;;4872150;29;20041;-91
2020/12/08 04:12:32;;;;;;;34.65;19.02;;;3.30;99.90;;;;;;4886617;29;20032;-91
2020/12/08 04:15:01;;;;;;;30.73;18.30;;;3.30;99.90;;;;;;4902200;29;20028;-90
2020/12/08 04:17:33;;;;;;;30.48;18.33;;;3.10;99.90;;;;;;4919672;29;20374;-91
2020/12/08 04:20:01;;;;;;;34.63;19.98;;;3.10;99.90;;;;;;4910403;29;20036;-91
2020/12/08 04:22:31;;;;;;;31.15;19.63;;;3.10;99.90;;;;;;4918321;29;20039;-91
2020/12/08 04:24:57;;;;;;;33.15;18.77;;;3.00;99.90;;;;;;4930420;28;20048;-93
2020/12/08 04:27:23;;;;;;;35.40;20.65;;;3.00;99.90;;;;;;4929281;28;20079;-92
2020/12/08 04:29:48;;;;;;;32.60;20.30;;;3.00;99.90;;;;;;4904714;29;20051;-91
2020/12/08 04:32:20;;;;;;;34.42;19.25;;;3.10;99.90;;;;;;4915794;29;20120;-93
2020/12/08 04:34:46;;;;;;;32.42;19.95;;;3.20;99.90;;;;;;4901486;29;20029;-90
2020/12/08 04:37:13;;;;;;;37.60;18.60;;;3.30;99.90;;;;;;4900372;29;20054;-92
2020/12/08 04:39:39;;;;;;;32.67;19.65;;;3.40;99.90;;;;;;4910119;28;20101;-92
2020/12/08 04:42:06;;;;;;;29.40;17.60;;;3.50;99.90;;;;;;4938924;28;20011;-92
2020/12/08 04:44:32;;;;;;;32.10;19.17;;;3.50;99.90;;;;;;4942531;28;20036;-92
2020/12/08 04:47:02;;;;;;;27.35;17.23;;;3.60;99.90;;;;;;4925409;29;20036;-91
2020/12/08 04:49:29;;;;;;;32.45;19.05;;;3.70;99.90;;;;;;4947879;28;20044;-91
2020/12/08 04:52:00;;;;;;;30.88;17.73;;;3.70;99.90;;;;;;4929250;28;20020;-92
2020/12/08 04:54:27;;;;;;;26.27;16.73;;;3.80;99.90;;;;;;4932482;29;20432;-91
2020/12/08 04:56:52;;;;;;;30.25;17.58;;;3.80;99.90;;;;;;4930705;29;20046;-92
2020/12/08 04:59:24;;;;;;;28.88;18.20;;;3.80;99.90;;;;;;4944106;29;20035;-90
2020/12/08 05:01:53;;;;;;;32.38;18.60;;;3.80;99.90;;;;;;4933723;29;20265;-92
2020/12/08 05:04:31;;;;;;;28.38;16.17;;;3.90;99.90;;;;;;4916937;29;20058;-91
2020/12/08 05:07:04;;;;;;;29.15;17.42;;;3.80;99.90;;;;;;4962815;28;20042;-92
2020/12/08 05:09:30;;;;;;;25.52;15.13;;;3.90;99.90;;;;;;4969060;28;20044;-91
2020/12/08 05:11:59;;;;;;;22.42;15.10;;;4.00;99.90;;;;;;4956574;29;20134;-92
2020/12/08 05:14:31;;;;;;;24.35;16.02;;;4.10;99.90;;;;;;4936638;28;20051;-90
2020/12/08 05:17:04;;;;;;;25.17;15.13;;;4.00;99.90;;;;;;4958111;29;20047;-91
2020/12/08 05:19:31;;;;;;;26.75;15.60;;;4.10;99.90;;;;;;4962478;29;20032;-91
2020/12/08 05:21:59;;;;;;;21.27;14.20;;;4.20;99.90;;;;;;4965750;28;20124;-91
2020/12/08 05:24:29;;;;;;;24.50;13.35;;;4.20;99.90;;;;;;4968664;28;20030;-90
2020/12/08 05:27:06;;;;;;;20.15;12.93;;;4.20;99.90;;;;;;4964299;28;20023;-91
2020/12/08 05:29:36;;;;;;;23.27;13.93;;;4.30;99.90;;;;;;4973679;28;20032;-91
2020/12/08 05:34:41;;;;;;;18.48;13.13;;;4.20;99.90;;;;;;5019393;23;20043;-93
2020/12/08 05:37:13;;;;;;;19.08;11.98;;;4.30;99.90;;;;;;4978976;28;20033;-93
2020/12/08 05:39:41;;;;;;;22.15;12.82;;;4.30;99.90;;;;;;4961679;28;20099;-92
2020/12/08 05:42:13;;;;;;;20.65;13.15;;;4.30;99.90;;;;;;4914790;29;20042;-91
2020/12/08 05:44:45;;;;;;;18.95;12.07;;;4.30;99.90;;;;;;4935823;29;20035;-92
2020/12/08 05:47:41;;;;;;;19.17;13.25;;;4.30;99.90;;;;;;4971563;28;20051;-92
2020/12/08 05:50:07;;;;;;;20.08;12.40;;;4.30;99.90;;;;;;4955667;28;20094;-92
2020/12/08 05:52:40;;;;;;;20.08;13.27;;;4.30;99.90;;;;;;4961918;28;20027;-92
2020/12/08 05:55:10;;;;;;;24.02;13.95;;;4.30;99.90;;;;;;4979070;28;20015;-92
2020/12/08 05:57:41;;;;;;;20.43;12.20;;;4.30;99.90;;;;;;4962830;28;20083;-92
2020/12/08 06:00:26;;;;;;;20.70;12.73;;;4.30;99.90;;;;;;4963249;28;20271;-92
2020/12/08 06:02:54;;;;;;;20.00;13.60;;;4.30;99.90;;;;;;4963257;28;20019;-92
2020/12/08 06:05:31;;;;;;;18.52;12.15;;;4.30;99.90;;;;;;4962585;28;20031;-92
2020/12/08 06:07:58;;;;;;;18.63;11.07;;;4.30;99.90;;;;;;4958916;29;20059;-92
2020/12/08 06:10:26;;;;;;;17.23;11.27;;;4.30;99.90;;;;;;4945755;29;20083;-92
2020/12/08 06:12:57;;;;;;;16.02;11.02;;;4.20;99.90;;;;;;4944039;29;20027;-92
2020/12/08 06:15:24;;;;;;;17.55;11.13;;;4.30;99.90;;;;;;4944877;29;20418;-92
2020/12/08 06:17:51;;;;;;;19.05;9.98;;;4.20;99.90;;;;;;4943473;29;20040;-92
2020/12/08 06:20:18;;;;;;;15.82;10.30;;;4.20;99.90;;;;;;4943584;29;20099;-93
2020/12/08 06:22:58;;;;;;;16.02;9.63;;;4.20;99.90;;;;;;4955505;29;20019;-92
2020/12/08 06:25:24;;;;;;;14.05;9.45;;;4.20;99.90;;;;;;4951612;29;20027;-92
2020/12/08 06:27:54;;;;;;;14.18;8.70;;;4.20;99.90;;;;;;4947504;29;20054;-93
2020/12/08 06:30:21;;;;;;;13.65;8.73;;;4.30;99.90;;;;;;4944836;29;20039;-93
2020/12/08 06:32:49;;;;;;;17.08;9.77;;;4.30;99.90;;;;;;4951301;28;20039;-93
2020/12/08 06:35:18;;;;;;;17.20;9.80;;;4.20;99.90;;;;;;4938126;28;20035;-93
2020/12/08 06:37:58;;;;;;;16.73;9.45;;;4.30;99.90;;;;;;4953276;28;20036;-93
2020/12/08 06:40:24;;;;;;;13.23;9.57;;;4.30;99.90;;;;;;4948893;28;20080;-91
2020/12/08 06:42:53;;;;;;;16.25;9.63;;;4.30;99.90;;;;;;4950549;28;20064;-92
2020/12/08 06:45:24;;;;;;;14.23;9.13;;;4.20;99.90;;;;;;4948301;28;20036;-92
2020/12/08 06:47:52;;;;;;;14.95;9.77;;;4.20;99.90;;;;;;4939111;29;20027;-90
2020/12/08 06:50:29;;;;;;;17.40;9.60;;;4.20;99.90;;;;;;4941345;29;20088;-89
2020/12/08 06:53:03;;;;;;;18.02;9.25;;;4.20;99.90;;;;;;4958428;28;20023;-91
2020/12/08 06:55:41;;;;;;;16.00;10.15;;;4.20;99.90;;;;;;4940937;28;20035;-89
2020/12/08 06:58:10;;;;;;;13.27;8.57;;;4.20;99.90;;;;;;4900990;29;20055;-87
2020/12/08 07:00:36;;;;;;;15.05;8.85;;;4.20;99.90;;;;;;4875510;29;20114;-89
2020/12/08 07:03:06;;;;;;;11.38;7.38;;;4.20;99.90;;;;;;4938254;29;20039;-88
2020/12/08 07:05:34;;;;;;;11.30;7.53;;;4.20;99.90;;;;;;4915596;28;20150;-95
2020/12/08 07:08:27;;;;;;;12.23;7.90;;;4.20;99.90;;;;;;4927532;28;20141;-90
2020/12/08 07:10:54;;;;;;;12.93;7.53;;;4.20;99.90;;;;;;4938911;28;20051;-90
2020/12/08 07:13:35;;;;;;;10.65;7.68;;;4.20;99.90;;;;;;4947721;29;20032;-91
2020/12/08 07:16:01;;;;;;;12.05;8.13;;;4.20;99.90;;;;;;4930449;29;20027;-90
2020/12/08 07:18:30;;;;;;;12.10;8.43;;;4.20;99.90;;;;;;4917777;29;20086;-91
2020/12/08 07:20:57;;;;;;;13.27;8.88;;;4.20;99.90;;;;;;4926912;29;20046;-92
2020/12/08 07:26:30;;;;;;;11.95;8.00;;;4.30;99.90;;;;;;4864594;29;20118;-92
2020/12/08 07:29:05;;;;;;;14.82;9.52;;;4.30;99.90;;;;;;4910837;29;20055;-93
2020/12/08 07:31:45;;;;;;;17.05;8.82;;;4.30;99.90;;;;;;4911978;29;20037;-93
2020/12/08 07:57:23;;;;;;;15.57;9.98;;;4.20;99.90;;;;;;4944684;29;20680;-94
2020/12/08 07:59:50;;;;;;;16.30;10.95;;;4.30;99.90;;;;;;4895302;29;20050;-94
2020/12/08 08:02:15;;;;;;;17.73;10.35;;;4.30;99.90;;;;;;4942012;29;20032;-92
2020/12/08 08:05:08;;;;;;;16.83;10.85;;;4.30;99.90;;;;;;4905974;29;20101;-90
2020/12/08 08:07:36;;;;;;;17.75;11.05;;;4.40;99.90;;;;;;4917325;29;20037;-90
2020/12/08 08:10:02;;;;;;;18.13;11.70;;;4.30;99.90;;;;;;4903932;29;20122;-92
2020/12/08 08:12:29;;;;;;;22.33;13.43;;;4.30;99.90;;;;;;4888398;29;20152;-91
2020/12/08 08:14:55;;;;;;;19.30;12.50;;;4.40;99.90;;;;;;4985312;23;20039;-92
2020/12/08 08:17:28;;;;;;;17.65;10.40;;;4.30;99.90;;;;;;4964811;28;20062;-92
2020/12/08 08:19:54;;;;;;;17.65;11.52;;;4.30;99.90;;;;;;4940949;29;20040;-90
2020/12/08 08:22:20;;;;;;;17.60;11.38;;;4.30;99.90;;;;;;4941218;29;20089;-89
2020/12/08 08:24:48;;;;;;;16.92;10.82;;;4.30;99.90;;;;;;4939593;29;20103;-91
2020/12/08 08:27:21;;;;;;;15.73;9.63;;;4.30;99.90;;;;;;5021278;23;20075;-93
2020/12/08 08:40:13;;;;;;;17.65;11.70;;;4.50;99.90;;;;;;5012041;28;20039;-92
2020/12/08 08:45:18;;;;;;;19.80;11.38;;;4.50;99.90;;;;;;5057405;23;20043;-91
2020/12/08 08:47:45;;;;;;;16.05;10.77;;;4.50;99.90;;;;;;5034409;23;20114;-90
2020/12/08 08:52:54;;;;;;;16.60;10.77;;;4.60;99.90;;;;;;4978944;28;20050;-92
2020/12/08 08:57:51;;;;;;;18.73;10.95;;;4.60;99.90;;;;;;5104428;23;20362;-89
2020/12/08 09:02:55;;;;;;;15.35;10.18;;;4.70;99.90;;;;;;5119649;23;20057;-93
2020/12/08 09:05:21;;;;;;;17.35;11.63;;;4.80;99.90;;;;;;4963134;28;20015;-93
2020/12/08 09:07:47;;;;;;;19.05;10.77;;;4.80;99.90;;;;;;4951130;28;20108;-95
2020/12/08 09:10:13;;;;;;;16.83;10.50;;;4.80;99.90;;;;;;5118158;23;20445;-88
2020/12/08 09:12:44;;;;;;;16.70;9.98;;;4.80;99.90;;;;;;5042384;23;20030;-93
2020/12/08 09:18:01;;;;;;;14.02;9.43;;;4.80;99.90;;;;;;4995478;28;20054;-95
2020/12/08 09:20:29;;;;;;;17.00;10.88;;;4.80;99.90;;;;;;4972491;28;20038;-93
2020/12/08 09:25:31;;;;;;;17.60;10.60;;;4.90;99.90;;;;;;5006551;23;20078;-92
2020/12/08 09:27:59;;;;;;;19.42;12.23;;;4.90;99.90;;;;;;4983583;28;20014;-96
2020/12/08 09:30:25;;;;;;;19.48;10.85;;;5.00;99.90;;;;;;4983856;28;20015;-90
2020/12/08 09:33:07;;;;;;;18.80;10.60;;;5.00;99.90;;;;;;4983913;28;20007;-85
2020/12/08 09:35:35;;;;;;;17.48;11.60;;;5.20;99.90;;;;;;4981702;28;20026;-86
2020/12/08 09:38:03;;;;;;;15.90;10.35;;;5.20;99.90;;;;;;5276799;23;20115;-88
2020/12/08 09:43:58;;;;;;;17.48;10.80;;;5.20;99.90;;;;;;5269503;23;20047;-91
2020/12/08 09:49:02;;;;;;;15.50;10.40;;;5.30;99.90;;;;;;5154139;23;20268;-89
2020/12/08 09:51:29;;;;;;;16.08;10.60;;;5.40;99.90;;;;;;4979908;28;20031;-96
2020/12/08 09:56:28;;;;;;;18.30;12.23;;;5.80;99.90;;;;;;5010534;23;20067;-95
2020/12/08 10:01:34;;;;;;;15.70;10.05;;;6.10;99.90;;;;;;4941850;29;20036;-95
2020/12/08 10:04:02;;;;;;;;;;;6.20;99.90;;;;;;4892206;29;20103;-94
2020/12/08 10:06:28;;;;;;;14.82;9.82;;;6.20;99.90;;;;;;4901557;29;19948;-95
2020/12/08 10:08:56;;;;;;;14.68;10.48;;;6.20;99.90;;;;;;4886270;29;20025;-95
2020/12/08 10:11:25;;;;;;;16.00;10.95;;;6.10;99.90;;;;;;4970836;23;20043;-94
2020/12/08 10:13:54;;;;;;;17.10;10.30;;;6.10;99.90;;;;;;4955908;28;20038;-95
2020/12/08 10:16:21;;;;;;;14.68;10.88;;;6.30;99.90;;;;;;4968941;29;20020;-94
2020/12/08 10:18:49;;;;;;;17.67;11.68;;;6.30;99.90;;;;;;4954973;29;20032;-95
2020/12/08 10:24:32;;;;;;;14.13;10.18;;;6.30;99.90;;;;;;4884985;29;20057;-95
2020/12/08 10:27:00;;;;;;;15.35;9.82;;;6.30;99.90;;;;;;4885628;29;20123;-93
2020/12/08 10:29:29;;;;;;;14.45;9.82;;;6.10;99.90;;;;;;4857199;29;20049;-93
2020/12/08 10:32:51;;;;;;;16.48;10.02;;;5.90;99.90;;;;;;4867754;29;20032;-94
2020/12/08 10:35:21;;;;;;;16.25;10.98;;;5.80;99.90;;;;;;4817946;29;20055;-96
2020/12/08 10:37:48;;;;;;;14.40;10.20;;;5.90;99.90;;;;;;4787378;30;20126;-94
2020/12/08 10:40:17;;;;;;;15.20;9.20;;;6.00;99.90;;;;;;4814121;29;20042;-92
2020/12/08 10:42:52;;;;;;;15.88;10.23;;;6.00;99.90;;;;;;4805978;29;20047;-93
2020/12/08 10:45:21;;;;;;;14.32;9.63;;;6.00;99.90;;;;;;4784994;29;20047;-93
2020/12/08 10:47:53;;;;;;;16.85;11.00;;;6.00;99.90;;;;;;4769558;30;20039;-96
2020/12/08 10:50:21;;;;;;;16.90;10.65;;;6.00;99.90;;;;;;4773014;30;20109;-95
2020/12/08 10:52:49;;;;;;;17.98;10.50;;;6.00;99.90;;;;;;5092667;23;20062;-94
2020/12/08 10:55:17;;;;;;;15.32;9.93;;;6.00;99.90;;;;;;4962773;28;20043;-95
2020/12/08 10:57:45;;;;;;;20.25;11.65;;;6.10;99.90;;;;;;4973413;28;20086;-93
2020/12/08 11:00:14;;;;;;;15.80;10.02;;;6.10;99.90;;;;;;4980494;28;20086;-95
2020/12/08 11:02:42;;;;;;;17.10;11.23;;;6.20;99.90;;;;;;4923088;28;20028;-95
2020/12/08 11:05:09;;;;;;;17.30;11.00;;;6.10;99.90;;;;;;4903994;29;20043;-93
2020/12/08 11:07:38;;;;;;;15.20;9.85;;;6.10;99.90;;;;;;4931709;28;20035;-93
2020/12/08 11:10:06;;;;;;;15.35;10.38;;;6.10;99.90;;;;;;4922771;28;20023;-92
2020/12/08 11:12:32;;;;;;;20.10;10.30;;;6.40;99.90;;;;;;4938354;28;20052;-92
2020/12/08 11:15:01;;;;;;;18.33;10.40;;;6.80;99.90;;;;;;4915368;29;20058;-91
2020/12/08 11:17:38;;;;;;;;;;;;;;;;;;;;;
2020/12/08 11:20:14;;;;;;;13.38;8.80;;;6.60;99.90;;;;;;4938791;28;20045;-94
2020/12/08 11:25:17;;;;;;;12.25;8.07;;;6.70;99.90;;;;;;5117161;23;20377;-90
2020/12/08 11:27:47;;;;;;;17.85;9.75;;;6.70;99.90;;;;;;4974243;28;20043;-91
2020/12/08 11:30:12;;;;;;;15.68;9.07;;;6.50;99.90;;;;;;4944791;29;20103;-92
2020/12/08 11:32:41;;;;;;;12.40;8.10;;;6.60;99.90;;;;;;4926224;29;20485;-91
2020/12/08 11:35:10;;;;;;;13.27;9.13;;;6.60;99.90;;;;;;4922041;29;20039;-93
2020/12/08 11:37:38;;;;;;;13.65;8.95;;;6.50;99.90;;;;;;4937821;28;20070;-91
2020/12/08 11:40:11;;;;;;;12.20;9.10;;;6.60;99.90;;;;;;4936042;28;20121;-94
2020/12/08 11:42:47;;;;;;;12.95;8.65;;;6.60;99.90;;;;;;4932485;29;20028;-95
2020/12/08 11:45:15;;;;;;;14.40;8.95;;;6.70;99.90;;;;;;4927277;29;20080;-95
2020/12/08 11:47:41;;;;;;;12.88;7.88;;;6.80;99.90;;;;;;4923131;29;20079;-94
2020/12/08 11:50:08;;;;;;;12.30;8.02;;;6.90;99.90;;;;;;4895442;29;20144;-95
2020/12/08 11:52:36;;;;;;;12.13;8.00;;;6.70;99.90;;;;;;4925325;29;20032;-92
2020/12/08 11:55:09;;;;;;;12.02;8.15;;;6.60;99.90;;;;;;4922762;29;20335;-93
2020/12/08 11:57:38;;;;;;;12.48;7.43;;;6.70;99.90;;;;;;4908413;29;20032;-95
2020/12/08 12:00:22;;;;;;;11.75;7.43;;;6.80;99.90;;;;;;4893164;29;20036;-93
2020/12/08 12:02:49;;;;;;;10.48;7.68;;;6.90;99.90;;;;;;4931149;29;20047;-92
2020/12/08 12:05:16;;;;;;;11.20;7.90;;;6.80;99.90;;;;;;4931056;28;20040;-92
2020/12/08 12:12:53;;;;;;;10.57;7.63;;;6.80;99.90;;;;;;4997827;23;20038;-94
2020/12/08 12:15:19;;;;;;;11.38;8.00;;;6.90;99.90;;;;;;4970594;28;20077;-91
2020/12/08 12:17:46;;;;;;;9.80;7.18;;;6.90;99.90;;;;;;4943425;29;20032;-91
2020/12/08 12:20:13;;;;;;;10.70;7.40;;;6.80;99.90;;;;;;4941510;29;20038;-93
2020/12/08 12:22:46;;;;;;;10.75;7.25;;;6.80;99.90;;;;;;4933189;29;20036;-93
2020/12/08 12:25:18;;;;;;;9.77;7.55;;;6.70;99.90;;;;;;4928131;29;20048;-92
2020/12/08 12:27:48;;;;;;;11.07;7.63;;;6.80;99.90;;;;;;4936789;29;20039;-92
2020/12/08 12:30:20;;;;;;;10.18;6.60;;;6.70;99.90;;;;;;4908617;29;20035;-95
2020/12/08 12:32:47;;;;;;;;;;;6.80;99.90;;;;;;4923979;29;20044;-93
2020/12/08 12:35:18;;;;;;;11.18;7.35;;;6.70;99.90;;;;;;4922075;29;19955;-96
2020/12/08 12:37:45;;;;;;;10.20;6.82;;;6.70;99.90;;;;;;4908621;29;20021;-93
2020/12/08 12:40:13;;;;;;;9.70;6.80;;;6.60;99.90;;;;;;5021593;23;20076;-93
2020/12/08 12:42:52;;;;;;;11.52;6.80;;;6.70;99.90;;;;;;4943728;29;20036;-94
2020/12/08 12:45:20;;;;;;;10.68;7.07;;;6.80;99.90;;;;;;4946436;29;20025;-92
2020/12/08 12:47:47;;;;;;;10.27;6.57;;;6.90;99.90;;;;;;4930663;29;20050;-93
2020/12/08 12:50:15;;;;;;;9.60;6.25;;;6.80;99.90;;;;;;4943905;29;20051;-92
2020/12/08 12:52:43;;;;;;;9.77;6.70;;;6.90;99.90;;;;;;4909174;29;20051;-92
2020/12/08 12:55:11;;;;;;;10.93;7.15;;;6.80;99.90;;;;;;4932185;29;20008;-92
2020/12/08 12:57:38;;;;;;;13.07;7.32;;;6.70;99.90;;;;;;4929749;29;20129;-91
2020/12/08 13:00:17;;;;;;;9.90;7.05;;;6.70;99.90;;;;;;4928834;29;20062;-92
2020/12/08 13:03:08;;;;;;;11.07;7.22;;;6.70;99.90;;;;;;4915119;29;20059;-92
2020/12/08 13:05:34;;;;;;;10.38;6.95;;;6.70;99.90;;;;;;4898777;29;20080;-91
2020/12/08 13:08:09;;;;;;;12.52;7.82;;;6.60;99.90;;;;;;4873624;29;20065;-93
2020/12/08 13:10:37;;;;;;;9.60;6.88;;;6.60;99.90;;;;;;4858590;29;20188;-93
2020/12/08 13:13:05;;;;;;;11.20;7.20;;;6.50;99.90;;;;;;4861100;29;20560;-93
2020/12/08 13:15:40;;;;;;;10.32;6.82;;;6.50;99.90;;;;;;4857390;29;20041;-90
2020/12/08 13:18:05;;;;;;;10.45;7.18;;;6.50;99.90;;;;;;4832314;29;20042;-91
2020/12/08 13:20:31;;;;;;;11.20;7.28;;;6.40;99.90;;;;;;4826082;29;20057;-92
2020/12/08 13:23:03;;;;;;;9.90;6.45;;;6.40;99.90;;;;;;4823927;29;20141;-91
2020/12/08 13:28:27;;;;;;;9.93;6.55;;;6.40;99.90;;;;;;4983414;23;20070;-90
2020/12/08 13:30:54;;;;;;;10.52;6.45;;;6.40;99.90;;;;;;4948362;28;20047;-91
2020/12/08 13:33:21;;;;;;;11.93;7.00;;;6.40;99.90;;;;;;4950521;29;20023;-92
2020/12/08 13:35:49;;;;;;;9.85;6.95;;;6.40;99.90;;;;;;4932319;29;20106;-92
2020/12/08 13:38:22;;;;;;;10.27;6.47;;;6.60;99.90;;;;;;4945188;29;20055;-91
2020/12/08 13:40:51;;;;;;;12.02;7.18;;;6.80;99.90;;;;;;4969837;29;20047;-92
2020/12/08 13:43:18;;;;;;;11.85;7.95;;;6.70;99.90;;;;;;4968317;28;20114;-92
2020/12/08 13:45:46;;;;;;;13.75;7.50;;;6.70;99.90;;;;;;4953916;29;20079;-89
2020/12/08 13:48:13;;;;;;;18.73;7.47;;;6.80;99.90;;;;;;4930725;29;20071;-93
2020/12/08 13:50:41;;;;;;;9.80;6.68;;;6.80;99.90;;;;;;4908720;29;20088;-91
2020/12/08 13:53:14;;;;;;;12.43;6.90;;;6.80;99.90;;;;;;4907286;29;20021;-93
2020/12/08 13:55:59;;;;;;;9.18;6.00;;;6.80;99.90;;;;;;4887277;29;20037;-93
2020/12/08 13:58:27;;;;;;;11.77;7.35;;;6.90;99.90;;;;;;4880352;29;20033;-91
2020/12/08 14:00:53;;;;;;;10.02;6.55;;;6.80;99.90;;;;;;5144798;23;20055;-91
2020/12/08 14:03:19;;;;;;;9.93;7.10;;;6.90;99.90;;;;;;4965849;28;20027;-95
2020/12/08 14:05:49;;;;;;;12.30;7.78;;;6.80;99.90;;;;;;4923884;29;20047;-91
2020/12/08 14:08:20;;;;;;;10.85;7.38;;;6.80;99.90;;;;;;4909226;29;20111;-92
2020/12/08 14:11:02;;;;;;;13.00;7.68;;;6.80;99.90;;;;;;4894329;29;20111;-94
2020/12/08 14:13:45;;;;;;;10.50;7.57;;;6.80;99.90;;;;;;4925614;29;20114;-93